createdAt,value
2022-10-28T00:00:17.712Z,3.10
2022-10-28T00:01:17.803Z,4.80
2022-10-28T00:02:17.733Z,3.90
2022-10-28T00:03:17.684Z,3.90
2022-10-28T00:04:17.763Z,3.80
2022-10-28T00:05:17.665Z,3.10
2022-10-28T00:06:17.660Z,4.80
2022-10-28T00:07:17.652Z,4.10
2022-10-28T00:08:17.648Z,4.60
2022-10-28T00:09:17.669Z,3.90
2022-10-28T00:10:17.629Z,5.40
2022-10-28T00:11:17.623Z,4.10
2022-10-28T00:12:17.625Z,5.30
2022-10-28T00:13:17.615Z,3.40
2022-10-28T00:14:17.618Z,6.20
2022-10-28T00:15:17.588Z,5.20
2022-10-28T00:16:17.578Z,5.10
2022-10-28T00:17:17.625Z,4.60
2022-10-28T00:18:17.561Z,6.40
2022-10-28T00:19:17.582Z,5.70
2022-10-28T00:20:17.546Z,5.00
2022-10-28T00:21:17.532Z,5.60
2022-10-28T00:22:17.524Z,6.20
2022-10-28T00:23:17.517Z,6.50
2022-10-28T00:24:17.534Z,5.90
2022-10-28T00:25:17.499Z,5.10
2022-10-28T00:26:17.488Z,4.00
2022-10-28T00:27:17.480Z,1.30
2022-10-28T00:28:18.469Z,4.30
2022-10-28T00:29:17.488Z,2.40
2022-10-28T00:30:17.531Z,3.00
2022-10-28T00:31:17.446Z,3.00
2022-10-28T00:32:17.438Z,1.20
2022-10-28T00:33:17.427Z,1.00
2022-10-28T00:34:17.442Z,1.30
2022-10-28T00:35:17.410Z,1.20
2022-10-28T00:36:17.407Z,0.80
2022-10-28T00:37:17.404Z,4.00
2022-10-28T00:38:17.374Z,1.90
2022-10-28T00:39:18.413Z,3.90
2022-10-28T00:40:17.365Z,2.90
2022-10-28T00:41:17.362Z,2.30
2022-10-28T00:42:17.357Z,2.30
2022-10-28T00:43:17.426Z,2.50
2022-10-28T00:44:17.363Z,3.80
2022-10-28T00:45:17.312Z,3.50
2022-10-28T00:46:18.317Z,3.40
2022-10-28T00:47:17.305Z,3.10
2022-10-28T00:48:17.297Z,4.80
2022-10-28T00:49:17.319Z,2.70
2022-10-28T00:50:17.287Z,4.60
2022-10-28T00:51:17.271Z,4.70
2022-10-28T00:52:17.265Z,5.40
2022-10-28T00:53:17.257Z,5.20
2022-10-28T00:54:17.283Z,6.80
2022-10-28T00:55:17.243Z,7.00
2022-10-28T00:56:17.271Z,6.50
2022-10-28T00:57:17.229Z,4.90
2022-10-28T00:58:17.218Z,8.30
2022-10-28T00:59:17.236Z,4.90
2022-10-28T01:00:17.195Z,4.80
2022-10-28T01:01:17.214Z,6.80
2022-10-28T01:02:17.313Z,4.80
2022-10-28T01:03:17.166Z,5.80
2022-10-28T01:04:17.193Z,4.50
2022-10-28T01:05:17.157Z,4.10
2022-10-28T01:06:17.141Z,4.50
2022-10-28T01:07:17.140Z,3.40
2022-10-28T01:08:17.133Z,5.20
2022-10-28T01:09:17.176Z,7.30
2022-10-28T01:10:17.114Z,5.80
2022-10-28T01:11:17.112Z,7.10
2022-10-28T01:12:17.092Z,6.00
2022-10-28T01:13:17.087Z,5.70
2022-10-28T01:14:17.110Z,5.50
2022-10-28T01:15:17.074Z,6.10
2022-10-28T01:16:17.061Z,4.70
2022-10-28T01:17:17.058Z,5.50
2022-10-28T01:18:17.044Z,4.80
2022-10-28T01:19:17.068Z,4.40
2022-10-28T01:20:17.032Z,2.20
2022-10-28T01:21:17.027Z,2.10
2022-10-28T01:22:17.076Z,2.80
2022-10-28T01:23:17.006Z,2.80
2022-10-28T01:24:17.026Z,1.60
2022-10-28T01:25:16.984Z,5.20
2022-10-28T01:26:16.975Z,2.30
2022-10-28T01:27:16.973Z,4.60
2022-10-28T01:28:16.964Z,3.30
2022-10-28T01:29:16.977Z,1.70
2022-10-28T01:30:16.950Z,3.90
2022-10-28T01:31:16.931Z,2.10
2022-10-28T01:32:16.928Z,3.20
2022-10-28T01:33:16.921Z,1.60
2022-10-28T01:34:16.937Z,4.20
2022-10-28T01:35:16.975Z,1.70
2022-10-28T01:36:16.891Z,2.20
2022-10-28T01:37:16.879Z,2.40
2022-10-28T01:38:16.877Z,2.10
2022-10-28T01:39:16.893Z,3.00
2022-10-28T01:40:16.858Z,4.60
2022-10-28T01:41:16.851Z,3.10
2022-10-28T01:42:16.844Z,2.20
2022-10-28T01:43:16.832Z,2.10
2022-10-28T01:44:16.871Z,3.50
2022-10-28T01:45:16.821Z,3.30
2022-10-28T01:46:16.815Z,3.70
2022-10-28T01:47:16.804Z,3.50
2022-10-28T01:48:16.799Z,3.30
2022-10-28T01:49:16.827Z,3.90
2022-10-28T01:50:16.789Z,3.40
2022-10-28T01:51:16.766Z,2.90
2022-10-28T01:52:16.767Z,4.00
2022-10-28T01:53:16.757Z,3.60
2022-10-28T01:54:16.791Z,3.80
2022-10-28T01:55:16.741Z,4.00
2022-10-28T01:56:16.729Z,4.30
2022-10-28T01:57:16.722Z,3.70
2022-10-28T01:58:16.719Z,3.70
2022-10-28T01:59:16.704Z,3.80
2022-10-28T02:00:16.726Z,3.80
2022-10-28T02:01:16.768Z,3.00
2022-10-28T02:02:16.670Z,4.10
2022-10-28T02:03:16.672Z,3.80
2022-10-28T02:04:16.659Z,3.30
2022-10-28T02:05:16.679Z,3.50
2022-10-28T02:06:16.647Z,4.00
2022-10-28T02:07:16.634Z,3.60
2022-10-28T02:08:16.621Z,4.80
2022-10-28T02:09:16.618Z,3.60
2022-10-28T02:10:16.641Z,3.20
2022-10-28T02:11:16.602Z,2.60
2022-10-28T02:12:16.618Z,3.20
2022-10-28T02:13:16.579Z,3.60
2022-10-28T02:14:16.574Z,3.90
2022-10-28T02:15:16.608Z,4.20
2022-10-28T02:16:16.568Z,3.70
2022-10-28T02:17:16.580Z,3.60
2022-10-28T02:18:16.551Z,1.90
2022-10-28T02:19:16.542Z,1.60
2022-10-28T02:20:16.555Z,5.00
2022-10-28T02:21:16.514Z,3.10
2022-10-28T02:22:16.519Z,4.20
2022-10-28T02:23:16.502Z,4.40
2022-10-28T02:24:16.495Z,4.50
2022-10-28T02:25:16.520Z,4.00
2022-10-28T02:26:16.478Z,3.50
2022-10-28T02:27:16.469Z,3.30
2022-10-28T02:28:16.469Z,3.60
2022-10-28T02:29:16.451Z,4.00
2022-10-28T02:30:16.458Z,3.20
2022-10-28T02:31:17.435Z,3.30
2022-10-28T02:32:16.426Z,2.90
2022-10-28T02:33:16.432Z,3.10
2022-10-28T02:34:16.409Z,2.20
2022-10-28T02:35:16.424Z,3.90
2022-10-28T02:36:16.395Z,2.30
2022-10-28T02:37:16.380Z,2.30
2022-10-28T02:38:16.370Z,3.40
2022-10-28T02:39:16.364Z,3.00
2022-10-28T02:40:16.392Z,4.20
2022-10-28T02:41:16.343Z,4.90
2022-10-28T02:42:16.337Z,5.60
2022-10-28T02:43:16.337Z,2.60
2022-10-28T02:44:16.321Z,4.60
2022-10-28T02:45:16.343Z,4.60
2022-10-28T02:46:16.300Z,4.20
2022-10-28T02:47:16.293Z,1.70
2022-10-28T02:48:16.286Z,3.00
2022-10-28T02:49:16.277Z,5.30
2022-10-28T02:50:16.305Z,5.00
2022-10-28T02:51:16.255Z,5.60
2022-10-28T02:52:16.247Z,5.40
2022-10-28T02:53:16.283Z,4.90
2022-10-28T02:54:16.235Z,2.10
2022-10-28T02:55:16.226Z,2.20
2022-10-28T02:56:16.246Z,3.50
2022-10-28T02:57:16.199Z,2.80
2022-10-28T02:58:16.200Z,2.30
2022-10-28T02:59:16.190Z,3.00
2022-10-28T03:00:16.188Z,2.80
2022-10-28T03:01:16.324Z,2.90
2022-10-28T03:02:16.190Z,3.00
2022-10-28T03:03:16.155Z,2.80
2022-10-28T03:04:16.152Z,3.40
2022-10-28T03:05:16.136Z,2.90
2022-10-28T03:06:16.217Z,2.60
2022-10-28T03:07:16.121Z,1.90
2022-10-28T03:08:16.113Z,1.90
2022-10-28T03:09:16.108Z,2.40
2022-10-28T03:10:16.103Z,3.00
2022-10-28T03:11:16.114Z,4.20
2022-10-28T03:12:16.085Z,3.10
2022-10-28T03:13:16.081Z,3.80
2022-10-28T03:14:16.081Z,3.40
2022-10-28T03:15:16.063Z,1.60
2022-10-28T03:16:16.077Z,3.30
2022-10-28T03:17:16.135Z,3.00
2022-10-28T03:18:16.035Z,2.90
2022-10-28T03:19:16.027Z,3.10
2022-10-28T03:20:16.020Z,3.30
2022-10-28T03:21:16.034Z,2.20
2022-10-28T03:22:15.996Z,3.50
2022-10-28T03:23:15.992Z,3.20
2022-10-28T03:24:15.982Z,3.10
2022-10-28T03:25:15.975Z,4.40
2022-10-28T03:26:16.020Z,3.30
2022-10-28T03:27:15.961Z,3.70
2022-10-28T03:28:15.951Z,2.90
2022-10-28T03:29:15.943Z,3.30
2022-10-28T03:30:15.927Z,3.50
2022-10-28T03:31:16.962Z,3.20
2022-10-28T03:32:15.969Z,3.20
2022-10-28T03:33:16.906Z,4.00
2022-10-28T03:34:15.904Z,3.40
2022-10-28T03:35:15.886Z,3.50
2022-10-28T03:36:15.904Z,3.40
2022-10-28T03:37:16.873Z,3.30
2022-10-28T03:38:15.862Z,2.70
2022-10-28T03:39:15.852Z,2.50
2022-10-28T03:40:15.847Z,2.80
2022-10-28T03:41:15.869Z,3.10
2022-10-28T03:42:15.831Z,2.80
2022-10-28T03:43:15.825Z,3.30
2022-10-28T03:44:15.810Z,2.70
2022-10-28T03:45:15.797Z,3.60
2022-10-28T03:46:15.823Z,3.00
2022-10-28T03:47:15.781Z,3.80
2022-10-28T03:48:15.777Z,3.40
2022-10-28T03:49:15.773Z,3.40
2022-10-28T03:50:15.754Z,3.20
2022-10-28T03:51:15.776Z,3.50
2022-10-28T03:52:15.742Z,2.60
2022-10-28T03:53:15.728Z,2.10
2022-10-28T03:54:15.728Z,3.20
2022-10-28T03:55:15.718Z,2.90
2022-10-28T03:56:15.740Z,2.70
2022-10-28T03:57:15.705Z,3.00
2022-10-28T03:58:15.697Z,2.80
2022-10-28T03:59:19.265Z,3.10
2022-10-28T04:00:15.678Z,3.20
2022-10-28T04:01:15.791Z,3.00
2022-10-28T04:02:15.929Z,2.70
2022-10-28T04:03:15.654Z,3.50
2022-10-28T04:04:15.639Z,2.70
2022-10-28T04:05:15.637Z,3.50
2022-10-28T04:06:15.655Z,3.10
2022-10-28T04:07:15.627Z,3.40
2022-10-28T04:08:15.607Z,2.80
2022-10-28T04:09:15.597Z,3.10
2022-10-28T04:10:15.591Z,3.80
2022-10-28T04:11:15.767Z,3.40
2022-10-28T04:12:15.588Z,4.40
2022-10-28T04:13:15.561Z,4.80
2022-10-28T04:14:15.557Z,4.70
2022-10-28T04:15:15.559Z,4.10
2022-10-28T04:16:15.580Z,3.20
2022-10-28T04:17:15.537Z,3.40
2022-10-28T04:18:15.539Z,1.50
2022-10-28T04:19:15.517Z,2.60
2022-10-28T04:20:15.514Z,2.10
2022-10-28T04:21:15.542Z,1.70
2022-10-28T04:22:15.526Z,4.70
2022-10-28T04:23:15.488Z,5.50
2022-10-28T04:24:15.480Z,6.10
2022-10-28T04:26:16.493Z,4.80
2022-10-28T04:27:15.460Z,2.50
2022-10-28T04:28:15.448Z,3.00
2022-10-28T04:29:15.443Z,3.30
2022-10-28T04:30:15.435Z,1.80
2022-10-28T04:31:15.424Z,4.70
2022-10-28T04:32:15.439Z,5.90
2022-10-28T04:33:15.406Z,6.30
2022-10-28T04:34:15.401Z,1.60
2022-10-28T04:35:15.415Z,1.00
2022-10-28T04:36:15.381Z,1.50
2022-10-28T04:37:20.377Z,2.60
2022-10-28T04:38:17.396Z,1.60
2022-10-28T04:39:15.357Z,3.90
2022-10-28T04:40:15.351Z,1.10
2022-10-28T04:41:15.348Z,1.50
2022-10-28T04:42:15.356Z,1.50
2022-10-28T04:43:15.327Z,3.10
2022-10-28T04:44:15.310Z,3.90
2022-10-28T04:45:15.301Z,5.30
2022-10-28T04:46:15.309Z,2.30
2022-10-28T04:47:15.312Z,2.20
2022-10-28T04:48:15.281Z,2.60
2022-10-28T04:49:15.262Z,2.30
2022-10-28T04:50:15.260Z,1.20
2022-10-28T04:51:15.282Z,2.60
2022-10-28T04:52:15.962Z,1.20
2022-10-28T04:53:15.237Z,1.40
2022-10-28T04:54:15.230Z,1.60
2022-10-28T04:55:15.214Z,1.50
2022-10-28T04:56:15.245Z,2.10
2022-10-28T04:57:15.195Z,1.70
2022-10-28T04:58:15.193Z,1.60
2022-10-28T04:59:15.183Z,2.00
2022-10-28T05:00:15.179Z,2.40
2022-10-28T05:01:15.301Z,5.20
2022-10-28T05:02:15.240Z,5.70
2022-10-28T05:03:15.170Z,5.00
2022-10-28T05:04:16.140Z,4.90
2022-10-28T05:06:15.165Z,4.60
2022-10-28T05:07:17.607Z,5.30
2022-10-28T05:08:15.106Z,3.60
2022-10-28T05:09:15.110Z,5.20
2022-10-28T05:10:15.086Z,5.70
2022-10-28T05:11:15.112Z,5.90
2022-10-28T05:12:15.072Z,5.40
2022-10-28T05:13:15.063Z,5.30
2022-10-28T05:14:15.067Z,5.10
2022-10-28T05:15:15.049Z,5.40
2022-10-28T05:16:15.046Z,4.50
2022-10-28T05:17:15.060Z,4.90
2022-10-28T05:18:15.023Z,5.60
2022-10-28T05:19:15.013Z,5.30
2022-10-28T05:20:15.011Z,4.70
2022-10-28T05:21:15.039Z,3.80
2022-10-28T05:22:14.999Z,5.80
2022-10-28T05:23:14.985Z,4.50
2022-10-28T05:24:14.969Z,3.00
2022-10-28T05:25:14.964Z,2.50
2022-10-28T05:26:14.954Z,2.10
2022-10-28T05:27:14.982Z,2.10
2022-10-28T05:28:14.942Z,2.90
2022-10-28T05:29:14.927Z,3.00
2022-10-28T05:30:14.942Z,5.50
2022-10-28T05:31:14.911Z,6.80
2022-10-28T05:32:14.932Z,6.00
2022-10-28T05:33:14.891Z,4.10
2022-10-28T05:34:15.889Z,3.80
2022-10-28T05:35:14.886Z,4.50
2022-10-28T05:36:14.872Z,2.80
2022-10-28T05:37:14.891Z,1.40
2022-10-28T05:38:14.851Z,5.60
2022-10-28T05:39:14.842Z,2.70
2022-10-28T05:40:14.841Z,5.90
2022-10-28T05:41:14.825Z,5.90
2022-10-28T05:42:14.845Z,7.30
2022-10-28T05:43:14.805Z,1.70
2022-10-28T05:44:14.800Z,4.80
2022-10-28T05:45:14.895Z,5.80
2022-10-28T05:46:14.785Z,2.10
2022-10-28T05:47:14.812Z,3.40
2022-10-28T05:48:14.775Z,4.00
2022-10-28T05:49:14.850Z,4.40
2022-10-28T05:50:15.022Z,2.90
2022-10-28T05:51:14.961Z,4.10
2022-10-28T05:52:14.758Z,4.10
2022-10-28T05:53:14.723Z,5.20
2022-10-28T05:54:14.718Z,4.80
2022-10-28T05:55:14.711Z,5.10
2022-10-28T05:56:14.697Z,5.30
2022-10-28T05:57:14.715Z,5.50
2022-10-28T05:58:14.678Z,2.60
2022-10-28T05:59:14.680Z,1.90
2022-10-28T06:00:14.663Z,4.20
2022-10-28T06:01:14.687Z,3.60
2022-10-28T06:02:14.671Z,1.90
2022-10-28T06:03:14.642Z,2.90
2022-10-28T06:04:14.692Z,2.20
2022-10-28T06:05:14.631Z,2.90
2022-10-28T06:06:14.618Z,1.90
2022-10-28T06:07:14.637Z,4.90
2022-10-28T06:08:14.593Z,4.90
2022-10-28T06:09:14.593Z,3.40
2022-10-28T06:10:14.570Z,2.40
2022-10-28T06:11:13.036Z,2.00
2022-10-28T06:12:13.055Z,0.90
2022-10-28T06:13:13.018Z,3.90
2022-10-28T06:14:13.012Z,4.20
2022-10-28T06:15:13.007Z,5.10
2022-10-28T06:16:12.996Z,4.50
2022-10-28T06:17:13.024Z,2.80
2022-10-28T06:18:16.665Z,3.40
2022-10-28T06:19:14.967Z,4.40
2022-10-28T06:20:12.967Z,4.20
2022-10-28T06:21:12.965Z,4.20
2022-10-28T06:22:12.972Z,4.60
2022-10-28T06:23:12.948Z,4.60
2022-10-28T06:24:12.943Z,4.00
2022-10-28T06:25:12.942Z,5.00
2022-10-28T06:26:12.914Z,4.60
2022-10-28T06:27:12.943Z,3.10
2022-10-28T06:28:12.893Z,2.90
2022-10-28T06:29:13.896Z,3.00
2022-10-28T06:30:12.880Z,3.60
2022-10-28T06:31:12.904Z,2.00
2022-10-28T06:32:12.906Z,2.20
2022-10-28T06:33:12.861Z,2.90
2022-10-28T06:34:12.851Z,4.10
2022-10-28T06:35:12.854Z,3.80
2022-10-28T06:36:12.869Z,3.80
2022-10-28T06:37:12.864Z,3.70
2022-10-28T06:38:12.820Z,4.20
2022-10-28T06:39:12.873Z,4.00
2022-10-28T06:40:12.809Z,3.80
2022-10-28T06:41:12.794Z,4.30
2022-10-28T06:42:13.882Z,4.00
2022-10-28T06:43:12.784Z,3.40
2022-10-28T06:44:12.778Z,3.40
2022-10-28T06:45:12.776Z,4.20
2022-10-28T06:46:12.774Z,3.30
2022-10-28T06:47:14.301Z,3.90
2022-10-28T06:48:14.264Z,2.90
2022-10-28T06:49:14.254Z,3.80
2022-10-28T06:50:14.251Z,3.10
2022-10-28T06:51:14.278Z,3.00
2022-10-28T06:52:14.229Z,3.40
2022-10-28T06:53:14.232Z,3.40
2022-10-28T06:54:14.223Z,3.40
2022-10-28T06:55:14.208Z,3.90
2022-10-28T06:56:14.267Z,3.40
2022-10-28T06:57:14.206Z,3.00
2022-10-28T06:58:14.192Z,3.60
2022-10-28T06:59:14.186Z,3.70
2022-10-28T07:00:14.177Z,3.30
2022-10-28T07:01:14.196Z,4.00
2022-10-28T07:02:14.281Z,3.00
2022-10-28T07:03:14.144Z,3.50
2022-10-28T07:04:14.138Z,3.50
2022-10-28T07:05:14.131Z,3.00
2022-10-28T07:07:14.143Z,3.80
2022-10-28T07:08:14.109Z,3.70
2022-10-28T07:09:14.105Z,3.40
2022-10-28T07:10:14.088Z,3.40
2022-10-28T07:11:14.083Z,3.20
2022-10-28T07:12:14.182Z,3.40
2022-10-28T07:13:14.062Z,3.10
2022-10-28T07:14:14.056Z,3.30
2022-10-28T07:15:14.058Z,3.70
2022-10-28T07:16:14.035Z,3.20
2022-10-28T07:17:14.071Z,3.60
2022-10-28T07:18:14.025Z,3.50
2022-10-28T07:19:14.027Z,4.30
2022-10-28T07:20:13.996Z,6.50
2022-10-28T07:21:14.997Z,5.60
2022-10-28T07:22:14.037Z,4.50
2022-10-28T07:23:13.990Z,4.90
2022-10-28T07:24:14.061Z,3.80
2022-10-28T07:25:13.968Z,3.90
2022-10-28T07:26:13.983Z,4.40
2022-10-28T07:27:13.985Z,6.00
2022-10-28T07:28:13.954Z,4.60
2022-10-28T07:29:13.941Z,5.00
2022-10-28T07:30:13.933Z,5.30
2022-10-28T07:31:13.928Z,5.50
2022-10-28T07:32:13.951Z,5.50
2022-10-28T07:33:13.909Z,5.80
2022-10-28T07:34:13.903Z,4.90
2022-10-28T07:35:13.909Z,8.40
2022-10-28T07:36:13.887Z,7.70
2022-10-28T07:37:13.908Z,5.50
2022-10-28T07:38:13.871Z,4.30
2022-10-28T07:39:13.857Z,3.50
2022-10-28T07:40:13.849Z,4.00
2022-10-28T07:41:13.850Z,3.70
2022-10-28T07:42:13.870Z,4.10
2022-10-28T07:43:13.830Z,3.60
2022-10-28T07:44:13.825Z,3.90
2022-10-28T07:45:13.821Z,3.70
2022-10-28T07:46:13.805Z,3.90
2022-10-28T07:47:13.823Z,3.00
2022-10-28T07:48:13.789Z,3.80
2022-10-28T07:49:13.813Z,3.60
2022-10-28T07:50:13.774Z,3.70
2022-10-28T07:51:13.784Z,3.50
2022-10-28T07:52:13.790Z,4.00
2022-10-28T07:54:13.742Z,3.90
2022-10-28T07:55:13.732Z,3.50
2022-10-28T07:56:13.749Z,3.80
2022-10-28T07:57:13.742Z,3.90
2022-10-28T07:58:13.707Z,3.70
2022-10-28T07:59:13.702Z,3.90
2022-10-28T08:00:13.708Z,3.50
2022-10-28T08:01:13.778Z,3.70
2022-10-28T08:02:13.765Z,3.50
2022-10-28T08:03:13.661Z,3.70
2022-10-28T08:04:13.652Z,3.40
2022-10-28T08:05:13.641Z,3.70
2022-10-28T08:06:13.633Z,3.60
2022-10-28T08:07:13.649Z,3.60
2022-10-28T08:08:13.604Z,3.60
2022-10-28T08:09:13.595Z,3.70
2022-10-28T08:10:13.583Z,3.20
2022-10-28T08:11:13.584Z,3.70
2022-10-28T08:12:13.597Z,3.70
2022-10-28T08:13:13.555Z,3.60
2022-10-28T08:14:13.546Z,3.30
2022-10-28T08:15:13.539Z,3.40
2022-10-28T08:16:13.531Z,4.00
2022-10-28T08:17:13.544Z,4.00
2022-10-28T08:18:13.514Z,3.70
2022-10-28T08:19:13.496Z,4.00
2022-10-28T08:20:13.493Z,4.10
2022-10-28T08:21:13.492Z,3.60
2022-10-28T08:22:13.505Z,3.60
2022-10-28T08:23:13.455Z,4.10
2022-10-28T08:24:13.458Z,4.30
2022-10-28T08:25:13.448Z,4.60
2022-10-28T08:26:13.439Z,4.30
2022-10-28T08:27:13.428Z,4.30
2022-10-28T08:28:13.444Z,4.40
2022-10-28T08:29:13.421Z,3.70
2022-10-28T08:30:13.407Z,3.70
2022-10-28T08:31:13.410Z,3.60
2022-10-28T08:32:13.400Z,3.70
2022-10-28T08:33:13.407Z,3.40
2022-10-28T08:34:13.425Z,3.60
2022-10-28T08:35:13.363Z,3.30
2022-10-28T08:36:13.359Z,3.80
2022-10-28T08:37:13.370Z,3.20
2022-10-28T08:38:13.372Z,3.60
2022-10-28T08:39:13.333Z,3.80
2022-10-28T08:40:13.329Z,3.30
2022-10-28T08:41:13.323Z,3.20
2022-10-28T08:42:13.327Z,3.40
2022-10-28T08:43:13.360Z,3.50
2022-10-28T08:44:13.293Z,3.30
2022-10-28T08:45:15.799Z,3.60
2022-10-28T08:46:14.276Z,4.40
2022-10-28T08:47:13.284Z,3.50
2022-10-28T08:48:13.297Z,3.30
2022-10-28T08:49:13.267Z,3.60
2022-10-28T08:50:13.251Z,3.40
2022-10-28T08:51:13.250Z,3.50
2022-10-28T08:52:13.241Z,3.40
2022-10-28T08:53:13.256Z,3.20
2022-10-28T08:54:13.226Z,3.40
2022-10-28T08:55:13.219Z,3.50
2022-10-28T08:56:13.207Z,3.40
2022-10-28T08:57:17.786Z,3.60
2022-10-28T08:58:15.239Z,3.10
2022-10-28T08:59:13.189Z,2.90
2022-10-28T09:00:13.179Z,3.10
2022-10-28T09:01:13.264Z,3.20
2022-10-28T09:02:13.178Z,3.50
2022-10-28T09:03:13.184Z,3.00
2022-10-28T09:04:13.160Z,3.20
2022-10-28T09:05:13.140Z,2.80
2022-10-28T09:06:13.140Z,3.40
2022-10-28T09:07:13.128Z,3.40
2022-10-28T09:08:13.149Z,2.80
2022-10-28T09:09:13.117Z,3.70
2022-10-28T09:10:13.114Z,2.90
2022-10-28T09:11:13.105Z,3.30
2022-10-28T09:12:13.092Z,2.90
2022-10-28T09:13:13.112Z,3.40
2022-10-28T09:14:13.091Z,2.70
2022-10-28T09:15:13.069Z,3.10
2022-10-28T09:16:15.276Z,3.00
2022-10-28T09:17:13.054Z,3.30
2022-10-28T09:18:13.078Z,4.30
2022-10-28T09:19:13.039Z,3.30
2022-10-28T09:20:13.035Z,2.80
2022-10-28T09:21:13.026Z,3.20
2022-10-28T09:22:15.246Z,2.90
2022-10-28T09:23:13.049Z,3.40
2022-10-28T09:24:13.011Z,2.60
2022-10-28T09:25:13.003Z,2.90
2022-10-28T09:26:13.001Z,2.90
2022-10-28T09:27:12.991Z,2.80
2022-10-28T09:28:13.015Z,3.10
2022-10-28T09:29:12.993Z,3.00
2022-10-28T09:30:12.992Z,3.00
2022-10-28T09:31:12.979Z,3.20
2022-10-28T09:32:12.974Z,3.40
2022-10-28T09:33:13.041Z,3.10
2022-10-28T09:34:13.100Z,2.80
2022-10-28T09:35:13.420Z,3.00
2022-10-28T09:36:16.373Z,2.80
2022-10-28T09:37:28.384Z,3.10
2022-10-28T09:41:37.392Z,2.90
2022-10-28T09:42:37.465Z,3.00
2022-10-28T09:43:37.434Z,3.70
2022-10-28T09:44:37.407Z,3.20
2022-10-28T09:45:37.388Z,2.80
2022-10-28T09:46:37.457Z,3.00
2022-10-28T09:47:37.369Z,3.40
2022-10-28T09:48:37.401Z,3.10
2022-10-28T09:49:38.511Z,3.20
2022-10-28T09:50:38.501Z,3.10
2022-10-28T09:51:38.489Z,2.80
2022-10-28T09:52:38.491Z,2.90
2022-10-28T09:53:38.517Z,2.70
2022-10-28T09:54:38.474Z,3.10
2022-10-28T09:55:38.463Z,2.60
2022-10-28T09:56:38.469Z,3.00
2022-10-28T09:57:38.452Z,2.80
2022-10-28T09:58:38.472Z,2.90
2022-10-28T09:59:38.435Z,2.60
2022-10-28T10:00:38.429Z,2.70
2022-10-28T10:01:38.532Z,2.60
2022-10-28T10:02:38.517Z,3.10
2022-10-28T10:03:38.439Z,3.40
2022-10-28T10:04:38.408Z,2.90
2022-10-28T10:05:38.397Z,3.20
2022-10-28T10:06:38.390Z,2.90
2022-10-28T10:07:38.389Z,2.70
2022-10-28T10:08:38.411Z,3.00
2022-10-28T10:09:38.367Z,3.50
2022-10-28T10:10:38.369Z,2.60
2022-10-28T10:11:38.365Z,2.80
2022-10-28T10:12:38.348Z,2.30
2022-10-28T10:13:38.376Z,2.80
2022-10-28T10:14:38.353Z,2.60
2022-10-28T10:15:38.333Z,2.80
2022-10-28T10:16:38.320Z,2.50
2022-10-28T10:17:38.326Z,3.00
2022-10-28T10:18:38.337Z,2.50
2022-10-28T10:19:38.308Z,2.80
2022-10-28T10:20:38.309Z,2.70
2022-10-28T10:21:38.286Z,2.50
2022-10-28T10:22:38.282Z,2.60
2022-10-28T10:24:38.267Z,3.20
2022-10-28T10:25:38.263Z,2.20
2022-10-28T10:26:38.263Z,3.10
2022-10-28T10:27:38.250Z,2.60
2022-10-28T10:28:38.276Z,2.70
2022-10-28T10:29:38.241Z,2.90
2022-10-28T10:30:38.236Z,2.10
2022-10-28T10:31:38.228Z,2.60
2022-10-28T10:32:38.212Z,2.70
2022-10-28T10:33:38.233Z,2.50
2022-10-28T10:34:38.203Z,2.60
2022-10-28T10:35:38.199Z,2.50
2022-10-28T10:36:38.199Z,2.50
2022-10-28T10:37:38.211Z,3.00
2022-10-28T10:38:38.196Z,2.40
2022-10-28T10:39:39.177Z,2.40
2022-10-28T10:40:38.161Z,2.90
2022-10-28T10:41:38.157Z,2.50
2022-10-28T10:42:46.509Z,2.70
2022-10-28T10:43:40.223Z,2.50
2022-10-28T10:44:38.144Z,2.70
2022-10-28T10:45:38.136Z,2.80
2022-10-28T10:46:38.127Z,2.50
2022-10-28T10:47:38.123Z,3.10
2022-10-28T10:48:38.136Z,3.00
2022-10-28T10:49:38.099Z,2.30
2022-10-28T10:50:38.101Z,2.30
2022-10-28T10:51:40.151Z,2.50
2022-10-28T10:52:38.088Z,2.40
2022-10-28T10:53:38.107Z,2.70
2022-10-28T10:54:38.074Z,2.20
2022-10-28T10:55:38.061Z,2.80
2022-10-28T10:56:38.047Z,2.60
2022-10-28T10:57:38.045Z,3.00
2022-10-28T10:58:38.072Z,2.70
2022-10-28T10:59:38.038Z,3.60
2022-10-28T11:00:38.032Z,2.10
2022-10-28T11:01:38.167Z,2.80
2022-10-28T11:02:38.156Z,2.40
2022-10-28T11:03:38.037Z,2.80
2022-10-28T11:04:37.993Z,2.30
2022-10-28T11:05:38.508Z,2.50
2022-10-28T11:06:38.987Z,2.30
2022-10-28T11:07:37.975Z,2.30
2022-10-28T11:08:37.995Z,2.70
2022-10-28T11:09:37.957Z,3.30
2022-10-28T11:10:37.953Z,2.50
2022-10-28T11:11:37.938Z,2.70
2022-10-28T11:12:37.941Z,2.50
2022-10-28T11:13:40.063Z,2.80
2022-10-28T11:14:37.925Z,2.60
2022-10-28T11:15:37.916Z,2.60
2022-10-28T11:16:37.911Z,2.50
2022-10-28T11:17:37.904Z,2.50
2022-10-28T11:18:37.929Z,3.10
2022-10-28T11:19:37.887Z,2.60
2022-10-28T11:20:37.887Z,2.90
2022-10-28T11:21:37.874Z,2.60
2022-10-28T11:22:37.912Z,2.60
2022-10-28T11:23:37.886Z,2.40
2022-10-28T11:24:37.838Z,2.90
2022-10-28T11:25:37.843Z,2.20
2022-10-28T11:26:37.830Z,2.20
2022-10-28T11:27:37.816Z,2.70
2022-10-28T11:28:37.858Z,2.60
2022-10-28T11:29:37.807Z,2.80
2022-10-28T11:30:37.811Z,2.40
2022-10-28T11:31:37.789Z,2.30
2022-10-28T11:32:45.181Z,2.70
2022-10-28T11:33:39.134Z,2.60
2022-10-28T11:34:37.769Z,2.00
2022-10-28T11:35:37.759Z,2.40
2022-10-28T11:36:37.752Z,2.80
2022-10-28T11:37:37.746Z,3.40
2022-10-28T11:38:38.469Z,2.40
2022-10-28T11:39:37.732Z,2.50
2022-10-28T11:40:37.712Z,2.30
2022-10-28T11:41:38.722Z,2.10
2022-10-28T11:42:37.710Z,2.50
2022-10-28T11:43:37.734Z,2.30
2022-10-28T11:44:37.696Z,2.40
2022-10-28T11:45:37.680Z,2.20
2022-10-28T11:46:37.676Z,2.30
2022-10-28T11:47:37.674Z,2.80
2022-10-28T11:48:37.694Z,2.40
2022-10-28T11:49:37.661Z,2.80
2022-10-28T11:50:37.661Z,2.10
2022-10-28T11:51:37.644Z,2.40
2022-10-28T11:52:42.617Z,2.60
2022-10-28T11:53:39.673Z,2.10
2022-10-28T11:54:37.618Z,2.60
2022-10-28T11:55:37.610Z,2.10
2022-10-28T11:56:37.601Z,2.50
2022-10-28T11:57:37.599Z,2.30
2022-10-28T11:58:37.617Z,2.80
2022-10-28T11:59:37.580Z,2.50
2022-10-28T12:00:37.602Z,2.30
2022-10-28T12:01:37.643Z,2.50
2022-10-28T12:02:37.671Z,2.20
2022-10-28T12:03:37.578Z,2.50
2022-10-28T12:04:37.568Z,2.80
2022-10-28T12:05:37.558Z,2.50
2022-10-28T12:06:37.530Z,2.30
2022-10-28T12:07:37.518Z,2.00
2022-10-28T12:08:37.555Z,2.80
2022-10-28T12:09:37.509Z,2.50
2022-10-28T12:10:37.496Z,2.70
2022-10-28T12:11:37.490Z,2.10
2022-10-28T12:12:39.734Z,2.60
2022-10-28T12:13:37.518Z,2.20
2022-10-28T12:14:37.461Z,2.00
2022-10-28T12:15:37.453Z,2.80
2022-10-28T12:16:37.452Z,2.20
2022-10-28T12:17:37.442Z,2.70
2022-10-28T12:18:37.467Z,2.30
2022-10-28T12:19:37.425Z,2.10
2022-10-28T12:20:37.422Z,2.80
2022-10-28T12:21:37.413Z,3.10
2022-10-28T12:22:37.396Z,2.60
2022-10-28T12:23:37.395Z,2.40
2022-10-28T12:24:37.513Z,3.30
2022-10-28T12:25:37.397Z,2.40
2022-10-28T12:26:37.380Z,2.70
2022-10-28T12:27:37.366Z,2.70
2022-10-28T12:28:37.363Z,2.60
2022-10-28T12:29:37.391Z,2.40
2022-10-28T12:30:37.348Z,2.40
2022-10-28T12:31:37.351Z,2.10
2022-10-28T12:32:37.333Z,3.20
2022-10-28T12:33:37.323Z,2.30
2022-10-28T12:35:38.303Z,3.20
2022-10-28T12:36:37.303Z,2.90
2022-10-28T12:37:37.287Z,2.60
2022-10-28T12:38:37.278Z,2.60
2022-10-28T12:39:37.301Z,3.40
2022-10-28T12:40:37.266Z,2.40
2022-10-28T12:41:37.297Z,2.10
2022-10-28T12:42:37.253Z,3.20
2022-10-28T12:43:37.261Z,2.60
2022-10-28T12:44:37.268Z,2.70
2022-10-28T12:45:37.226Z,3.00
2022-10-28T12:46:37.255Z,3.50
2022-10-28T12:47:40.508Z,2.70
2022-10-28T12:48:38.205Z,3.30
2022-10-28T12:49:37.229Z,2.80
2022-10-28T12:50:37.197Z,2.90
2022-10-28T12:51:37.186Z,2.70
2022-10-28T12:52:37.171Z,2.90
2022-10-28T12:53:37.195Z,2.40
2022-10-28T12:54:37.196Z,2.90
2022-10-28T12:55:37.162Z,2.60
2022-10-28T12:56:37.220Z,3.50
2022-10-28T12:57:37.140Z,3.10
2022-10-28T12:58:37.134Z,2.60
2022-10-28T12:59:37.154Z,3.10
2022-10-28T13:00:37.141Z,2.50
2022-10-28T13:01:37.206Z,2.30
2022-10-28T13:02:37.174Z,2.40
2022-10-28T13:03:37.099Z,2.70
2022-10-28T13:04:37.121Z,2.60
2022-10-28T13:05:37.107Z,2.50
2022-10-28T13:07:38.069Z,2.60
2022-10-28T13:08:37.094Z,2.90
2022-10-28T13:09:39.165Z,2.90
2022-10-28T13:10:37.050Z,2.60
2022-10-28T13:11:37.042Z,2.80
2022-10-28T13:12:37.027Z,2.50
2022-10-28T13:13:37.120Z,2.50
2022-10-28T13:14:37.017Z,2.60
2022-10-28T13:15:37.009Z,2.40
2022-10-28T13:16:37.008Z,2.40
2022-10-28T13:17:36.998Z,3.00
2022-10-28T13:18:37.011Z,3.30
2022-10-28T13:19:36.980Z,2.70
2022-10-28T13:20:36.972Z,3.00
2022-10-28T13:21:36.962Z,2.50
2022-10-28T13:22:39.460Z,2.60
2022-10-28T13:23:37.977Z,3.00
2022-10-28T13:24:36.946Z,3.10
2022-10-28T13:25:36.929Z,2.90
2022-10-28T13:26:36.936Z,2.70
2022-10-28T13:28:37.936Z,3.00
2022-10-28T13:29:36.898Z,3.10